createdAt,value
2019-05-19T00:00:31.097Z,7.97
2019-05-19T00:04:35.607Z,7.35
2019-05-19T00:08:40.160Z,7.65
2019-05-19T00:12:44.723Z,7.03
2019-05-19T00:16:49.261Z,7.10
2019-05-19T00:20:53.834Z,6.33
2019-05-19T00:24:58.347Z,7.97
2019-05-19T00:29:02.886Z,6.73
2019-05-19T00:33:07.451Z,6.07
2019-05-19T00:37:11.986Z,6.17
2019-05-19T00:41:16.526Z,5.60
2019-05-19T00:45:21.258Z,9.37
2019-05-19T00:49:25.821Z,6.10
2019-05-19T00:53:30.429Z,6.67
2019-05-19T00:57:36.218Z,6.43
2019-05-19T01:01:40.779Z,6.40
2019-05-19T01:05:45.289Z,8.63
2019-05-19T01:09:49.849Z,8.13
2019-05-19T01:13:54.404Z,6.90
2019-05-19T01:17:58.940Z,6.67
2019-05-19T01:22:03.925Z,5.93
2019-05-19T01:26:08.435Z,5.90
2019-05-19T01:30:13.287Z,6.50
2019-05-19T01:34:17.833Z,7.93
2019-05-19T01:38:22.380Z,8.43
2019-05-19T01:42:26.920Z,9.00
2019-05-19T01:46:31.491Z,7.77
2019-05-19T01:50:36.026Z,5.20
2019-05-19T01:54:40.573Z,7.77
2019-05-19T01:58:45.126Z,6.87
2019-05-19T02:02:49.712Z,7.67
2019-05-19T02:06:54.217Z,7.43
2019-05-19T02:10:58.745Z,6.47
2019-05-19T02:15:03.565Z,6.07
2019-05-19T02:19:08.125Z,6.13
2019-05-19T02:23:12.684Z,6.07
2019-05-19T02:27:17.178Z,6.27
2019-05-19T02:31:21.741Z,6.93
2019-05-19T02:35:25.658Z,8.00
2019-05-19T02:39:30.179Z,7.57
2019-05-19T02:43:34.816Z,7.63
2019-05-19T02:47:41.742Z,6.07
2019-05-19T02:51:48.999Z,6.43
2019-05-19T02:55:55.258Z,7.87
2019-05-19T03:00:00.825Z,6.63
2019-05-19T03:04:05.375Z,6.73
2019-05-19T03:08:09.882Z,5.67
2019-05-19T03:12:14.430Z,5.90
2019-05-19T03:16:18.962Z,4.40
2019-05-19T03:20:23.531Z,2.93
2019-05-19T03:24:28.093Z,8.90
2019-05-19T03:28:32.634Z,11.73
2019-05-19T03:32:42.366Z,11.33
2019-05-19T03:36:46.914Z,10.80
2019-05-19T03:40:51.458Z,9.73
2019-05-19T03:44:56.034Z,9.30
2019-05-19T03:49:00.554Z,8.80
2019-05-19T03:53:05.114Z,9.25
2019-05-19T03:57:09.654Z,9.38
2019-05-19T04:01:14.214Z,9.93
2019-05-19T04:05:18.773Z,9.65
2019-05-19T04:09:23.289Z,8.25
2019-05-19T04:13:27.882Z,8.23
2019-05-19T04:17:32.456Z,9.63
2019-05-19T04:21:48.080Z,9.23
2019-05-19T04:25:43.217Z,9.28
2019-05-19T04:29:47.715Z,8.70
2019-05-19T04:33:52.237Z,9.95
2019-05-19T04:37:56.982Z,9.25
2019-05-19T04:42:01.512Z,9.55
2019-05-19T04:46:06.103Z,8.80
2019-05-19T04:50:10.602Z,9.25
2019-05-19T04:54:15.169Z,9.00
2019-05-19T04:58:19.722Z,8.90
2019-05-19T05:02:24.284Z,9.78
2019-05-19T05:06:28.817Z,9.43
2019-05-19T05:10:33.361Z,11.43
2019-05-19T05:14:37.930Z,12.03
2019-05-19T05:18:42.489Z,11.20
2019-05-19T05:22:47.050Z,11.97
2019-05-19T05:26:51.613Z,13.98
2019-05-19T05:30:56.148Z,14.63
2019-05-19T05:35:00.758Z,15.53
2019-05-19T05:39:06.610Z,15.43
2019-05-19T05:43:11.197Z,15.72
2019-05-19T05:47:15.801Z,15.10
2019-05-19T05:51:20.309Z,15.90
2019-05-19T05:55:25.223Z,16.80
2019-05-19T05:59:42.695Z,17.60
2019-05-19T06:03:47.781Z,19.37
2019-05-19T06:07:52.322Z,19.67
2019-05-19T06:11:56.909Z,20.37
2019-05-19T06:16:01.409Z,20.23
2019-05-19T06:20:06.404Z,20.45
2019-05-19T06:24:11.116Z,21.05
2019-05-19T06:28:15.686Z,21.23
2019-05-19T06:32:27.293Z,19.03
2019-05-19T06:36:31.806Z,18.90
2019-05-19T06:40:36.345Z,17.73
2019-05-19T06:44:40.938Z,17.70
2019-05-19T06:48:45.497Z,16.33
2019-05-19T06:52:50.010Z,16.83
2019-05-19T06:56:54.533Z,15.53
2019-05-19T07:00:59.360Z,12.07
2019-05-19T07:05:04.165Z,11.37
2019-05-19T07:09:08.883Z,9.87
2019-05-19T07:13:13.380Z,9.30
2019-05-19T07:17:17.911Z,7.93
2019-05-19T07:21:22.440Z,8.13
2019-05-19T07:25:26.967Z,7.00
2019-05-19T07:29:31.513Z,6.60
2019-05-19T07:33:35.998Z,6.57
2019-05-19T07:37:40.526Z,6.33
2019-05-19T07:41:45.075Z,6.67
2019-05-19T07:45:49.666Z,5.83
2019-05-19T07:49:54.191Z,5.70
2019-05-19T07:53:58.693Z,5.30
2019-05-19T07:58:03.235Z,6.70
2019-05-19T08:02:07.815Z,6.67
2019-05-19T08:06:12.401Z,7.50
2019-05-19T08:10:16.293Z,6.40
2019-05-19T08:14:20.823Z,6.40
2019-05-19T08:18:25.416Z,6.23
2019-05-19T08:22:30.015Z,6.40
2019-05-19T08:26:34.568Z,6.03
2019-05-19T08:30:39.041Z,6.40
2019-05-19T08:34:43.566Z,7.20
2019-05-19T08:38:48.101Z,6.60
2019-05-19T08:42:52.637Z,6.70
2019-05-19T08:46:57.193Z,7.17
2019-05-19T08:51:01.690Z,8.43
2019-05-19T08:55:06.425Z,8.93
2019-05-19T08:59:10.976Z,9.07
2019-05-19T09:03:15.530Z,8.90
2019-05-19T09:07:20.084Z,9.27
2019-05-19T09:11:24.571Z,11.20
2019-05-19T09:15:29.101Z,11.07
2019-05-19T09:19:33.612Z,10.03
2019-05-19T09:23:38.161Z,13.70
2019-05-19T09:27:42.700Z,11.60
2019-05-19T09:31:47.198Z,13.07
2019-05-19T09:35:51.731Z,11.17
2019-05-19T09:39:56.256Z,10.50
2019-05-19T09:44:00.857Z,11.73
2019-05-19T09:48:05.373Z,11.67
2019-05-19T09:52:09.873Z,11.60
2019-05-19T09:56:22.476Z,11.00
2019-05-19T10:00:27.001Z,10.83
2019-05-19T10:04:31.573Z,11.30
2019-05-19T10:08:36.982Z,13.17
2019-05-19T10:12:41.485Z,11.60
2019-05-19T10:16:46.036Z,12.77
2019-05-19T10:20:50.617Z,9.90
2019-05-19T10:25:19.923Z,11.33
2019-05-19T10:29:01.514Z,9.87
2019-05-19T10:33:06.028Z,10.27
2019-05-19T10:37:12.701Z,9.87
2019-05-19T10:41:17.239Z,10.80
2019-05-19T10:45:22.064Z,10.63
2019-05-19T10:49:26.558Z,10.70
2019-05-19T10:53:31.054Z,10.47
2019-05-19T10:57:35.588Z,9.63
2019-05-19T11:01:40.138Z,8.63
2019-05-19T11:05:44.658Z,7.77
2019-05-19T11:09:49.184Z,8.47
2019-05-19T11:13:53.753Z,8.60
2019-05-19T11:17:58.289Z,7.63
2019-05-19T11:22:02.837Z,8.07
2019-05-19T11:26:07.377Z,7.97
2019-05-19T11:30:11.948Z,8.57
2019-05-19T11:34:16.456Z,7.90
2019-05-19T11:38:21.025Z,8.17
2019-05-19T11:42:25.574Z,8.53
2019-05-19T11:46:30.155Z,9.43
2019-05-19T11:50:34.703Z,10.13
2019-05-19T11:54:39.218Z,10.07
2019-05-19T11:58:43.776Z,9.40
2019-05-19T12:02:48.402Z,8.70
2019-05-19T12:06:52.920Z,7.83
2019-05-19T12:10:57.469Z,8.10
2019-05-19T12:15:01.966Z,7.37
2019-05-19T12:19:06.501Z,8.07
2019-05-19T12:23:11.061Z,7.67
2019-05-19T12:27:15.602Z,9.07
2019-05-19T12:31:20.120Z,9.17
2019-05-19T12:35:24.668Z,8.40
2019-05-19T12:39:29.165Z,8.13
2019-05-19T12:43:33.689Z,7.63
2019-05-19T12:47:39.820Z,9.07
2019-05-19T12:51:44.344Z,7.33
2019-05-19T12:55:48.879Z,8.37
2019-05-19T12:59:53.381Z,7.60
2019-05-19T13:03:57.921Z,7.30
2019-05-19T13:08:02.466Z,8.43
2019-05-19T13:12:06.999Z,6.70
2019-05-19T13:16:11.493Z,8.30
2019-05-19T13:20:16.141Z,9.37
2019-05-19T13:24:20.689Z,8.80
2019-05-19T13:28:25.242Z,9.80
2019-05-19T13:32:29.777Z,7.00
2019-05-19T13:36:34.322Z,10.47
2019-05-19T13:40:38.857Z,7.57
2019-05-19T13:44:43.409Z,6.77
2019-05-19T13:48:47.960Z,6.80
2019-05-19T13:52:52.503Z,6.90
2019-05-19T13:57:11.245Z,7.03
2019-05-19T14:01:03.253Z,7.70
2019-05-19T14:05:07.787Z,7.50
2019-05-19T14:09:15.232Z,6.33
2019-05-19T14:13:18.728Z,6.07
2019-05-19T14:17:23.214Z,6.00
2019-05-19T14:21:27.820Z,6.57
2019-05-19T14:25:32.348Z,6.43
2019-05-19T14:29:36.936Z,7.33
2019-05-19T14:33:41.506Z,6.13
2019-05-19T14:37:46.053Z,6.57
2019-05-19T14:41:54.773Z,6.97
2019-05-19T14:45:59.402Z,6.07
2019-05-19T14:50:03.976Z,6.37
2019-05-19T14:54:08.567Z,6.03
2019-05-19T14:58:13.080Z,6.40
2019-05-19T15:02:19.947Z,5.10
2019-05-19T15:06:23.944Z,5.40
2019-05-19T15:10:28.492Z,5.70
2019-05-19T15:14:33.045Z,6.23
2019-05-19T15:18:38.397Z,6.13
2019-05-19T15:22:43.126Z,6.30
2019-05-19T15:26:47.686Z,6.27
2019-05-19T15:30:52.313Z,7.50
2019-05-19T15:34:56.950Z,6.63
2019-05-19T15:39:01.608Z,9.07
2019-05-19T15:43:06.172Z,5.70
2019-05-19T15:47:10.920Z,7.07
2019-05-19T15:51:27.573Z,5.97
2019-05-19T15:55:21.654Z,5.93
2019-05-19T15:59:26.198Z,5.97
2019-05-19T16:03:30.754Z,6.30
2019-05-19T16:07:35.311Z,5.87
2019-05-19T16:11:39.870Z,6.60
2019-05-19T16:15:44.421Z,6.83
2019-05-19T16:19:48.937Z,6.20
2019-05-19T16:23:53.485Z,5.73
2019-05-19T16:27:58.048Z,6.77
2019-05-19T16:32:02.622Z,6.30
2019-05-19T16:36:07.955Z,7.47
2019-05-19T16:40:12.696Z,6.80
2019-05-19T16:44:17.269Z,7.57
2019-05-19T16:48:23.466Z,7.50
2019-05-19T16:52:28.169Z,6.43
2019-05-19T16:56:37.948Z,6.20
2019-05-19T17:00:42.487Z,8.03
2019-05-19T17:04:47.010Z,6.90
2019-05-19T17:08:51.534Z,7.30
2019-05-19T17:12:56.194Z,7.10
2019-05-19T17:17:00.692Z,8.03
2019-05-19T17:21:05.230Z,5.93
2019-05-19T17:25:09.866Z,6.23
2019-05-19T17:29:14.388Z,6.47
2019-05-19T17:33:18.991Z,6.13
2019-05-19T17:37:23.494Z,5.77
2019-05-19T17:41:28.009Z,6.67
2019-05-19T17:45:32.625Z,6.60
2019-05-19T17:49:37.141Z,6.00
2019-05-19T17:53:42.017Z,6.00
2019-05-19T17:57:47.136Z,6.43
2019-05-19T18:01:51.657Z,8.90
2019-05-19T18:05:56.212Z,11.50
2019-05-19T18:10:00.726Z,9.93
2019-05-19T18:14:05.250Z,9.40
2019-05-19T18:18:09.752Z,8.83
2019-05-19T18:22:14.389Z,9.80
2019-05-19T18:26:18.912Z,10.87
2019-05-19T18:30:23.442Z,8.93
2019-05-19T18:34:27.991Z,11.73
2019-05-19T18:38:32.481Z,10.33
2019-05-19T18:42:37.030Z,13.40
2019-05-19T18:46:41.597Z,9.00
2019-05-19T18:50:46.133Z,10.03
2019-05-19T18:54:51.081Z,10.70
2019-05-19T18:58:55.605Z,10.10
2019-05-19T19:03:00.136Z,10.67
2019-05-19T19:07:04.695Z,11.17
2019-05-19T19:11:09.241Z,10.27
2019-05-19T19:15:13.741Z,9.53
2019-05-19T19:19:18.261Z,10.40
2019-05-19T19:23:22.912Z,13.13
2019-05-19T19:27:27.485Z,11.50
2019-05-19T19:31:32.065Z,10.73
2019-05-19T19:35:39.139Z,12.17
2019-05-19T19:39:42.780Z,12.67
2019-05-19T19:43:47.442Z,14.77
2019-05-19T19:47:52.018Z,12.73
2019-05-19T19:51:56.557Z,12.50
2019-05-19T19:56:01.065Z,14.03
2019-05-19T20:00:17.929Z,12.00
2019-05-19T20:04:12.622Z,11.33
2019-05-19T20:08:17.197Z,11.23
2019-05-19T20:12:22.594Z,11.70
2019-05-19T20:16:27.146Z,12.43
2019-05-19T20:20:31.707Z,12.33
2019-05-19T20:24:36.304Z,12.03
2019-05-19T20:28:40.888Z,13.07
2019-05-19T20:32:45.469Z,11.60
2019-05-19T20:36:49.987Z,12.63
2019-05-19T20:40:54.572Z,14.00
2019-05-19T20:44:59.150Z,12.47
2019-05-19T20:49:03.719Z,13.83
2019-05-19T20:53:08.294Z,15.97
2019-05-19T20:57:12.847Z,13.10
2019-05-19T21:01:17.401Z,11.50
2019-05-19T21:05:21.949Z,14.50
2019-05-19T21:09:26.535Z,13.63
2019-05-19T21:13:31.080Z,13.33
2019-05-19T21:17:35.594Z,14.90
2019-05-19T21:21:40.185Z,13.17
2019-05-19T21:25:44.737Z,13.60
2019-05-19T21:29:49.310Z,13.33
2019-05-19T21:33:53.858Z,15.40
2019-05-19T21:37:58.418Z,14.10
2019-05-19T21:42:02.973Z,14.37
2019-05-19T21:46:07.585Z,13.03
2019-05-19T21:50:12.168Z,15.27
2019-05-19T21:54:16.692Z,14.67
2019-05-19T21:58:21.254Z,14.03
2019-05-19T22:02:25.805Z,15.20
2019-05-19T22:06:32.069Z,17.07
2019-05-19T22:10:36.642Z,16.83
2019-05-19T22:14:41.180Z,13.70
2019-05-19T22:18:45.750Z,16.97
2019-05-19T22:22:50.306Z,14.13
2019-05-19T22:26:54.864Z,15.07
2019-05-19T22:30:59.442Z,14.30
2019-05-19T22:35:03.963Z,15.53
2019-05-19T22:39:08.517Z,19.30
2019-05-19T22:43:13.106Z,15.73
2019-05-19T22:47:17.777Z,16.13
2019-05-19T22:51:22.855Z,16.73
2019-05-19T22:55:27.553Z,17.27
2019-05-19T22:59:32.118Z,15.27
2019-05-19T23:03:36.682Z,14.53
2019-05-19T23:07:41.237Z,16.10
2019-05-19T23:11:45.788Z,18.17
2019-05-19T23:15:50.356Z,15.00
2019-05-19T23:19:54.954Z,20.27
2019-05-19T23:23:59.613Z,19.27
2019-05-19T23:28:04.305Z,17.87
2019-05-19T23:32:08.892Z,22.77
2019-05-19T23:36:13.455Z,18.97
2019-05-19T23:40:17.992Z,19.07
2019-05-19T23:44:22.588Z,21.23
2019-05-19T23:48:27.170Z,19.03
2019-05-19T23:52:31.760Z,18.30
2019-05-19T23:56:36.309Z,18.83
